createdAt,value
2019-05-29T00:00:36.245Z,98217.47
2019-05-29T00:03:10.597Z,98232.51
2019-05-29T00:05:44.677Z,98230.85
2019-05-29T00:08:18.776Z,98224.55
2019-05-29T00:10:52.619Z,98220.72
2019-05-29T00:13:26.693Z,98218.25
2019-05-29T00:16:00.782Z,98224.27
2019-05-29T00:18:35.008Z,98232.36
2019-05-29T00:21:11.553Z,98234.22
2019-05-29T00:23:45.175Z,98239.45
2019-05-29T00:26:19.426Z,98249.06
2019-05-29T00:28:53.373Z,98255.56
2019-05-29T00:31:27.718Z,98243.28
2019-05-29T00:34:01.782Z,98235.42
2019-05-29T00:36:35.617Z,98245.75
2019-05-29T00:39:10.841Z,98248.25
2019-05-29T00:41:44.845Z,98270.84
2019-05-29T00:44:33.620Z,98278.16
2019-05-29T00:46:55.125Z,98276.02
2019-05-29T00:49:29.267Z,98276.41
2019-05-29T00:52:03.354Z,98287.97
2019-05-29T00:54:37.725Z,98294.59
2019-05-29T00:57:12.982Z,98294.43
2019-05-29T00:59:47.536Z,98282.16
2019-05-29T01:02:21.829Z,98293.23
2019-05-29T01:04:55.993Z,98302.20
2019-05-29T01:07:30.285Z,98308.15
2019-05-29T01:10:04.525Z,98308.67
2019-05-29T01:12:38.986Z,98308.31
2019-05-29T01:15:13.421Z,98309.67
2019-05-29T01:17:47.573Z,98301.48
2019-05-29T01:20:22.038Z,98318.01
2019-05-29T01:22:56.361Z,98325.53
2019-05-29T01:25:30.722Z,98317.64
2019-05-29T01:28:04.747Z,98309.22
2019-05-29T01:30:40.432Z,98306.91
2019-05-29T01:33:17.527Z,98317.20
2019-05-29T01:35:50.642Z,98334.13
2019-05-29T01:38:24.744Z,98335.56
2019-05-29T01:40:58.921Z,98326.05
2019-05-29T01:43:34.311Z,98328.52
2019-05-29T01:46:08.621Z,98329.40
2019-05-29T01:48:43.093Z,98332.48
2019-05-29T01:51:17.501Z,98330.38
2019-05-29T01:53:51.747Z,98324.38
2019-05-29T01:56:25.810Z,98336.30
2019-05-29T01:59:00.031Z,98346.95
2019-05-29T02:01:34.144Z,98361.59
2019-05-29T02:04:08.461Z,98367.00
2019-05-29T02:06:42.751Z,98365.89
2019-05-29T02:09:17.919Z,98358.59
2019-05-29T02:11:52.055Z,98365.13
2019-05-29T02:14:26.865Z,98371.91
2019-05-29T02:17:01.116Z,98381.20
2019-05-29T02:19:34.888Z,98374.07
2019-05-29T02:22:09.161Z,98368.72
2019-05-29T02:24:43.491Z,98378.77
2019-05-29T02:27:17.613Z,98382.42
2019-05-29T02:29:51.592Z,98390.95
2019-05-29T02:32:25.742Z,98385.67
2019-05-29T02:35:00.011Z,98386.08
2019-05-29T02:37:33.889Z,98392.36
2019-05-29T02:40:08.335Z,98393.38
2019-05-29T02:42:42.317Z,98389.77
2019-05-29T02:45:16.784Z,98396.89
2019-05-29T02:47:50.792Z,98404.30
2019-05-29T02:50:26.579Z,98406.98
2019-05-29T02:53:00.781Z,98410.73
2019-05-29T02:55:35.057Z,98390.96
2019-05-29T02:58:09.259Z,98395.22
2019-05-29T03:00:56.230Z,98416.10
2019-05-29T03:03:38.009Z,98426.32
2019-05-29T03:06:06.645Z,98417.46
2019-05-29T03:08:41.201Z,98406.30
2019-05-29T03:11:15.529Z,98408.00
2019-05-29T03:13:49.981Z,98423.70
2019-05-29T03:16:26.119Z,98446.59
2019-05-29T03:19:00.607Z,98434.26
2019-05-29T03:21:34.961Z,98420.75
2019-05-29T03:24:09.445Z,98430.48
2019-05-29T03:26:43.650Z,98447.34
2019-05-29T03:29:18.038Z,98466.53
2019-05-29T03:31:52.453Z,98452.67
2019-05-29T03:34:31.044Z,98448.29
2019-05-29T03:37:03.329Z,98429.75
2019-05-29T03:39:38.598Z,98441.00
2019-05-29T03:42:12.732Z,98435.11
2019-05-29T03:44:47.205Z,98436.27
2019-05-29T03:47:21.455Z,98439.50
2019-05-29T03:49:56.179Z,98448.00
2019-05-29T03:52:32.515Z,98437.23
2019-05-29T03:55:06.676Z,98440.64
2019-05-29T03:57:41.031Z,98439.66
2019-05-29T04:00:15.577Z,98437.58
2019-05-29T04:02:49.897Z,98434.11
2019-05-29T04:05:24.367Z,98439.50
2019-05-29T04:07:58.576Z,98447.59
2019-05-29T04:10:35.490Z,98438.00
2019-05-29T04:13:10.203Z,98436.48
2019-05-29T04:15:44.560Z,98441.50
2019-05-29T04:18:21.502Z,98443.59
2019-05-29T04:20:56.052Z,98448.86
2019-05-29T04:23:34.053Z,98442.03
2019-05-29T04:26:08.533Z,98440.95
2019-05-29T04:28:43.179Z,98436.58
2019-05-29T04:31:17.383Z,98438.51
2019-05-29T04:33:51.663Z,98442.08
2019-05-29T04:36:25.973Z,98440.44
2019-05-29T04:39:00.359Z,98436.61
2019-05-29T04:41:36.884Z,98431.67
2019-05-29T04:44:11.113Z,98429.73
2019-05-29T04:46:45.459Z,98429.72
2019-05-29T04:49:20.524Z,98431.37
2019-05-29T04:51:55.116Z,98426.42
2019-05-29T04:54:29.362Z,98422.02
2019-05-29T04:57:03.600Z,98420.93
2019-05-29T04:59:39.174Z,98416.81
2019-05-29T05:02:13.199Z,98418.72
2019-05-29T05:04:47.221Z,98412.94
2019-05-29T05:07:21.456Z,98422.55
2019-05-29T05:09:55.673Z,98425.81
2019-05-29T05:12:33.528Z,98418.63
2019-05-29T05:15:08.571Z,98420.56
2019-05-29T05:17:42.806Z,98422.45
2019-05-29T05:20:17.076Z,98423.03
2019-05-29T05:22:50.892Z,98418.47
2019-05-29T05:25:25.182Z,98422.00
2019-05-29T05:27:59.370Z,98420.61
2019-05-29T05:30:34.800Z,98416.70
2019-05-29T05:33:09.054Z,98422.22
2019-05-29T05:35:43.289Z,98419.25
2019-05-29T05:38:17.507Z,98417.61
2019-05-29T05:40:51.675Z,98413.25
2019-05-29T05:43:26.059Z,98412.69
2019-05-29T05:46:00.392Z,98414.91
2019-05-29T05:48:35.126Z,98417.38
2019-05-29T05:51:11.287Z,98402.17
2019-05-29T05:53:46.410Z,98409.03
2019-05-29T05:56:20.959Z,98399.37
2019-05-29T05:58:54.808Z,98397.41
2019-05-29T06:01:29.133Z,98393.03
2019-05-29T06:04:03.348Z,98392.44
2019-05-29T06:06:38.117Z,98386.64
2019-05-29T06:09:12.354Z,98387.19
2019-05-29T06:11:46.785Z,98385.80
2019-05-29T06:14:21.137Z,98380.00
2019-05-29T06:16:55.473Z,98387.08
2019-05-29T06:19:29.776Z,98378.83
2019-05-29T06:22:03.913Z,98374.40
2019-05-29T06:24:38.889Z,98366.90
2019-05-29T06:27:13.318Z,98363.95
2019-05-29T06:29:47.723Z,98365.59
2019-05-29T06:32:21.928Z,98369.55
2019-05-29T06:34:56.114Z,98367.41
2019-05-29T06:37:31.566Z,98367.42
2019-05-29T06:40:07.682Z,98359.16
2019-05-29T06:42:42.283Z,98355.59
2019-05-29T06:45:21.693Z,98358.34
2019-05-29T06:47:55.931Z,98350.88
2019-05-29T06:50:30.403Z,98348.64
2019-05-29T06:53:05.199Z,98345.29
2019-05-29T06:55:39.974Z,98338.91
2019-05-29T06:58:15.357Z,98335.03
2019-05-29T07:00:49.998Z,98339.22
2019-05-29T07:03:24.208Z,98326.13
2019-05-29T07:05:58.400Z,98327.56
2019-05-29T07:08:39.057Z,98325.67
2019-05-29T07:11:08.922Z,98326.20
2019-05-29T07:13:45.959Z,98321.25
2019-05-29T07:16:18.952Z,98319.88
2019-05-29T07:19:23.906Z,98305.48
2019-05-29T07:21:29.254Z,98305.48
2019-05-29T07:24:03.429Z,98306.80
2019-05-29T07:26:38.934Z,98302.37
2019-05-29T07:29:13.561Z,98300.76
2019-05-29T07:31:47.751Z,98292.74
2019-05-29T07:34:22.117Z,98288.29
2019-05-29T07:36:56.246Z,98285.00
2019-05-29T07:39:30.609Z,98279.45
2019-05-29T07:42:04.941Z,98287.38
2019-05-29T07:44:39.975Z,98274.97
2019-05-29T07:47:14.378Z,98274.97
2019-05-29T07:49:50.171Z,98275.42
2019-05-29T07:52:24.755Z,98267.44
2019-05-29T07:54:58.707Z,98261.33
2019-05-29T07:57:33.087Z,98261.33
2019-05-29T08:00:10.617Z,98252.29
2019-05-29T08:02:47.581Z,98252.47
2019-05-29T08:05:22.234Z,98248.58
2019-05-29T08:07:56.550Z,98248.58
2019-05-29T08:10:30.909Z,98255.02
2019-05-29T08:13:04.873Z,98247.23
2019-05-29T08:15:55.311Z,98238.63
2019-05-29T08:18:14.946Z,98238.63
2019-05-29T08:20:50.265Z,98223.45
2019-05-29T08:23:24.484Z,98220.09
2019-05-29T08:25:58.838Z,98221.80
2019-05-29T08:28:32.693Z,98211.45
2019-05-29T08:31:06.836Z,98207.14
2019-05-29T08:33:41.177Z,98203.05
2019-05-29T08:36:15.210Z,98202.54
2019-05-29T08:38:49.373Z,98189.41
2019-05-29T08:41:24.174Z,98187.42
2019-05-29T08:43:58.683Z,98170.94
2019-05-29T08:46:33.572Z,98170.94
2019-05-29T08:49:07.917Z,98156.36
2019-05-29T08:51:42.090Z,98156.36
2019-05-29T08:54:23.969Z,98153.64
2019-05-29T08:56:55.428Z,98149.74
2019-05-29T08:59:29.907Z,98147.80
2019-05-29T09:02:04.100Z,98150.81
2019-05-29T09:04:38.394Z,98138.16
2019-05-29T09:07:16.340Z,98126.53
2019-05-29T09:09:51.256Z,98126.53
2019-05-29T09:12:25.599Z,98124.63
2019-05-29T09:15:00.204Z,98115.32
2019-05-29T09:17:36.125Z,98102.28
2019-05-29T09:20:26.142Z,98108.09
2019-05-29T09:22:48.007Z,98108.09
2019-05-29T09:25:23.223Z,98110.48
2019-05-29T09:27:57.518Z,98104.32
2019-05-29T09:30:31.765Z,98104.32
2019-05-29T09:33:06.424Z,98099.16
2019-05-29T09:35:41.073Z,98094.69
2019-05-29T09:38:16.760Z,98095.85
2019-05-29T09:40:52.968Z,98081.95
2019-05-29T09:43:30.688Z,98085.55
2019-05-29T09:46:05.542Z,98083.95
2019-05-29T09:48:49.802Z,98083.95
2019-05-29T09:51:21.204Z,98077.05
2019-05-29T09:53:57.250Z,98072.66
2019-05-29T09:56:32.253Z,98071.30
2019-05-29T09:59:06.704Z,98070.75
2019-05-29T10:01:41.278Z,98067.45
2019-05-29T10:04:15.821Z,98064.44
2019-05-29T10:06:50.315Z,98059.55
2019-05-29T10:09:24.890Z,98055.17
2019-05-29T10:12:03.302Z,98062.00
2019-05-29T10:14:35.477Z,98058.70
2019-05-29T10:17:12.762Z,98055.70
2019-05-29T10:19:48.137Z,98051.05
2019-05-29T10:22:22.744Z,98051.05
2019-05-29T10:24:58.099Z,98048.07
2019-05-29T10:27:33.092Z,98054.08
2019-05-29T10:30:08.253Z,98036.02
2019-05-29T10:32:44.399Z,98038.47
2019-05-29T10:35:18.813Z,98032.47
2019-05-29T10:37:53.152Z,98030.00
2019-05-29T10:40:27.913Z,98028.63
2019-05-29T10:43:03.021Z,98026.15
2019-05-29T10:45:37.502Z,98021.53
2019-05-29T10:48:11.907Z,98013.06
2019-05-29T10:50:50.461Z,98007.03
2019-05-29T10:53:22.724Z,98014.41
2019-05-29T10:56:00.225Z,98010.84
2019-05-29T10:58:47.993Z,98007.83
2019-05-29T11:01:11.024Z,98002.09
2019-05-29T11:03:45.568Z,98004.28
2019-05-29T11:06:19.729Z,97999.90
2019-05-29T11:08:54.252Z,97996.06
2019-05-29T11:11:28.378Z,97995.54
2019-05-29T11:14:02.538Z,97991.19
2019-05-29T11:16:39.690Z,97994.16
2019-05-29T11:19:14.025Z,97992.55
2019-05-29T11:21:49.651Z,97988.45
2019-05-29T11:24:25.092Z,97987.63
2019-05-29T11:26:59.537Z,97985.16
2019-05-29T11:29:33.659Z,97987.36
2019-05-29T11:32:08.437Z,97991.72
2019-05-29T11:34:42.561Z,97988.72
2019-05-29T11:37:17.383Z,97987.05
2019-05-29T11:39:52.584Z,97989.78
2019-05-29T11:42:28.101Z,97982.41
2019-05-29T11:45:03.815Z,97982.16
2019-05-29T11:47:38.342Z,97986.78
2019-05-29T11:50:19.707Z,97986.80
2019-05-29T11:52:52.326Z,97986.80
2019-05-29T11:55:26.987Z,97984.89
2019-05-29T11:58:02.032Z,97979.96
2019-05-29T12:00:36.409Z,97975.03
2019-05-29T12:03:10.930Z,97979.68
2019-05-29T12:05:44.892Z,97979.94
2019-05-29T12:08:19.243Z,97982.41
2019-05-29T12:10:53.463Z,97978.31
2019-05-29T12:13:28.196Z,97983.78
2019-05-29T12:16:02.128Z,97981.34
2019-05-29T12:18:36.250Z,97982.42
2019-05-29T12:21:10.543Z,97979.41
2019-05-29T12:23:45.316Z,97984.06
2019-05-29T12:26:48.536Z,97983.23
2019-05-29T12:29:24.853Z,97975.83
2019-05-29T12:31:58.979Z,97982.14
2019-05-29T12:34:36.073Z,97983.24
2019-05-29T12:37:10.100Z,97988.70
2019-05-29T12:39:44.163Z,97975.30
2019-05-29T12:42:18.049Z,97980.77
2019-05-29T12:44:51.786Z,97981.86
2019-05-29T12:47:25.784Z,97978.58
2019-05-29T12:50:02.543Z,97974.21
2019-05-29T12:52:36.740Z,97975.30
2019-05-29T12:55:11.236Z,97981.61
2019-05-29T12:57:45.528Z,97981.25
2019-05-29T13:00:19.813Z,97988.98
2019-05-29T13:02:54.449Z,97984.98
2019-05-29T13:05:28.954Z,97989.91
2019-05-29T13:08:03.602Z,97993.25
2019-05-29T13:10:38.859Z,97984.00
2019-05-29T13:13:12.823Z,97982.13
2019-05-29T13:15:46.880Z,97989.41
2019-05-29T13:18:22.856Z,97995.02
2019-05-29T13:20:56.800Z,97995.17
2019-05-29T13:23:44.304Z,97998.60
2019-05-29T13:26:06.729Z,97999.28
2019-05-29T13:28:40.784Z,97993.68
2019-05-29T13:31:14.958Z,97996.23
2019-05-29T13:33:48.933Z,98011.89
2019-05-29T13:36:22.801Z,98005.81
2019-05-29T13:38:58.033Z,98001.77
2019-05-29T13:41:32.177Z,98006.93
2019-05-29T13:44:07.012Z,98010.33
2019-05-29T13:46:41.262Z,98007.73
2019-05-29T13:49:15.222Z,98007.99
2019-05-29T13:51:49.209Z,98007.99
2019-05-29T13:54:23.287Z,98010.89
2019-05-29T13:56:58.998Z,98010.89
2019-05-29T13:59:33.093Z,98012.37
2019-05-29T14:02:08.682Z,98012.37
2019-05-29T14:04:43.356Z,98014.82
2019-05-29T14:07:17.478Z,98014.82
2019-05-29T14:09:51.650Z,98019.18
2019-05-29T14:12:25.647Z,98028.48
2019-05-29T14:14:59.911Z,98028.48
2019-05-29T14:17:34.879Z,98029.82
2019-05-29T14:20:09.875Z,98029.82
2019-05-29T14:22:43.876Z,98030.32
2019-05-29T14:25:18.348Z,98030.32
2019-05-29T14:27:52.341Z,98030.05
2019-05-29T14:30:26.479Z,98036.89
2019-05-29T14:33:02.183Z,98037.94
2019-05-29T14:35:35.817Z,98037.94
2019-05-29T14:38:14.373Z,98044.78
2019-05-29T14:40:45.768Z,98048.06
2019-05-29T14:43:20.130Z,98053.51
2019-05-29T14:45:54.300Z,98052.93
2019-05-29T14:48:28.571Z,98057.30
2019-05-29T14:51:03.607Z,98053.94
2019-05-29T14:53:38.403Z,98052.56
2019-05-29T14:56:12.797Z,98061.82
2019-05-29T14:58:46.888Z,98061.82
2019-05-29T15:01:21.203Z,98064.27
2019-05-29T15:03:54.868Z,98061.55
2019-05-29T15:06:28.507Z,98074.22
2019-05-29T15:09:03.617Z,98068.23
2019-05-29T15:11:37.258Z,98068.95
2019-05-29T15:14:12.322Z,98072.83
2019-05-29T15:16:46.526Z,98075.23
2019-05-29T15:19:20.515Z,98080.69
2019-05-29T15:21:54.555Z,98080.59
2019-05-29T15:24:28.598Z,98093.11
2019-05-29T15:27:03.013Z,98089.56
2019-05-29T15:29:37.166Z,98087.11
2019-05-29T15:32:12.458Z,98091.55
2019-05-29T15:34:46.631Z,98089.94
2019-05-29T15:37:20.670Z,98088.79
2019-05-29T15:39:54.477Z,98095.14
2019-05-29T15:42:28.518Z,98097.33
2019-05-29T15:45:02.699Z,98098.70
2019-05-29T15:47:36.741Z,98105.29
2019-05-29T15:50:13.409Z,98106.93
2019-05-29T15:52:47.570Z,98105.87
2019-05-29T15:55:32.103Z,98105.72
2019-05-29T15:57:57.879Z,98112.70
2019-05-29T16:00:31.696Z,98109.27
2019-05-29T16:03:05.625Z,98113.29
2019-05-29T16:05:39.450Z,98109.31
2019-05-29T16:08:14.044Z,98110.75
2019-05-29T16:10:47.882Z,98115.97
2019-05-29T16:13:21.965Z,98113.24
2019-05-29T16:15:56.110Z,98110.76
2019-05-29T16:18:29.973Z,98115.92
2019-05-29T16:21:03.759Z,98119.48
2019-05-29T16:23:37.769Z,98118.61
2019-05-29T16:26:13.025Z,98119.41
2019-05-29T16:28:47.186Z,98110.66
2019-05-29T16:31:21.343Z,98111.19
2019-05-29T16:33:55.477Z,98114.48
2019-05-29T16:36:29.362Z,98110.90
2019-05-29T16:39:03.962Z,98112.27
2019-05-29T16:41:40.025Z,98112.52
2019-05-29T16:44:14.193Z,98108.97
2019-05-29T16:46:48.238Z,98113.61
2019-05-29T16:49:23.121Z,98110.05
2019-05-29T16:51:56.996Z,98115.77
2019-05-29T16:54:31.166Z,98113.30
2019-05-29T16:57:05.294Z,98114.12
2019-05-29T16:59:39.973Z,98112.48
2019-05-29T17:02:13.855Z,98113.31
2019-05-29T17:04:48.025Z,98116.60
2019-05-29T17:07:22.203Z,98110.58
2019-05-29T17:09:56.292Z,98122.34
2019-05-29T17:12:30.469Z,98121.80
2019-05-29T17:15:04.443Z,98116.34
2019-05-29T17:17:38.274Z,98118.55
2019-05-29T17:20:12.887Z,98116.08
2019-05-29T17:22:46.980Z,98125.09
2019-05-29T17:25:25.485Z,98117.77
2019-05-29T17:27:57.203Z,98118.33
2019-05-29T17:30:34.651Z,98122.98
2019-05-29T17:33:09.267Z,98123.25
2019-05-29T17:35:43.551Z,98120.78
2019-05-29T17:38:18.933Z,98118.02
2019-05-29T17:40:53.491Z,98119.93
2019-05-29T17:43:28.762Z,98119.92
2019-05-29T17:46:03.329Z,98114.20
2019-05-29T17:48:37.808Z,98118.05
2019-05-29T17:51:12.106Z,98116.70
2019-05-29T17:53:46.191Z,98114.77
2019-05-29T17:56:31.764Z,98116.68
2019-05-29T17:58:56.401Z,98112.02
2019-05-29T18:01:31.082Z,98113.09
2019-05-29T18:04:05.356Z,98113.09
2019-05-29T18:06:39.489Z,98107.62
2019-05-29T18:09:13.703Z,98108.45
2019-05-29T18:11:48.094Z,98106.83
2019-05-29T18:14:23.259Z,98108.77
2019-05-29T18:16:57.570Z,98111.50
2019-05-29T18:19:31.741Z,98110.38
2019-05-29T18:22:06.362Z,98112.58
2019-05-29T18:24:40.386Z,98112.02
2019-05-29T18:27:14.739Z,98107.63
2019-05-29T18:29:49.752Z,98103.00
2019-05-29T18:32:24.481Z,98107.38
2019-05-29T18:34:58.970Z,98104.36
2019-05-29T18:37:33.156Z,98103.02
2019-05-29T18:40:12.270Z,98108.98
2019-05-29T18:42:43.595Z,98104.34
2019-05-29T18:45:21.551Z,98103.46
2019-05-29T18:47:54.586Z,98104.44
2019-05-29T18:50:29.692Z,98105.19
2019-05-29T18:53:03.748Z,98099.97
2019-05-29T18:55:37.975Z,98098.01
2019-05-29T18:58:12.344Z,98090.88
2019-05-29T19:00:46.357Z,98097.69
2019-05-29T19:03:21.374Z,98093.30
2019-05-29T19:05:55.460Z,98094.38
2019-05-29T19:08:29.783Z,98095.76
2019-05-29T19:11:03.840Z,98100.09
2019-05-29T19:13:37.927Z,98097.38
2019-05-29T19:16:12.197Z,98093.33
2019-05-29T19:18:46.329Z,98093.27
2019-05-29T19:21:20.527Z,98089.94
2019-05-29T19:23:54.481Z,98090.95
2019-05-29T19:26:28.821Z,98087.34
2019-05-29T19:29:03.224Z,98082.67
2019-05-29T19:31:42.414Z,98086.77
2019-05-29T19:34:14.680Z,98084.02
2019-05-29T19:36:48.673Z,98075.84
2019-05-29T19:39:23.726Z,98071.48
2019-05-29T19:41:57.964Z,98071.74
2019-05-29T19:44:32.444Z,98070.13
2019-05-29T19:47:06.516Z,98066.30
2019-05-29T19:49:40.656Z,98069.02
2019-05-29T19:52:14.756Z,98069.27
2019-05-29T19:54:48.794Z,98066.52
2019-05-29T19:57:23.038Z,98067.91
2019-05-29T19:59:56.966Z,98069.60
2019-05-29T20:02:30.884Z,98063.59
2019-05-29T20:05:04.969Z,98066.06
2019-05-29T20:07:39.044Z,98062.47
2019-05-29T20:10:13.355Z,98062.77
2019-05-29T20:12:47.464Z,98056.99
2019-05-29T20:15:21.812Z,98053.69
2019-05-29T20:17:55.980Z,98048.52
2019-05-29T20:20:30.401Z,98055.89
2019-05-29T20:23:04.709Z,98053.72
2019-05-29T20:25:39.893Z,98055.32
2019-05-29T20:28:14.274Z,98059.70
2019-05-29T20:30:48.640Z,98058.91
2019-05-29T20:33:22.925Z,98064.94
2019-05-29T20:35:57.263Z,98058.94
2019-05-29T20:38:31.182Z,98060.83
2019-05-29T20:41:05.414Z,98065.20
2019-05-29T20:43:39.816Z,98069.84
2019-05-29T20:46:13.905Z,98075.00
2019-05-29T20:48:48.225Z,98080.72
2019-05-29T20:51:22.443Z,98091.61
2019-05-29T20:53:56.614Z,98090.50
2019-05-29T20:56:31.671Z,98092.94
2019-05-29T20:59:08.235Z,98080.17
2019-05-29T21:01:46.933Z,98080.69
2019-05-29T21:04:18.514Z,98082.10
2019-05-29T21:06:52.765Z,98081.27
2019-05-29T21:09:26.929Z,98075.81
2019-05-29T21:12:01.510Z,98082.89
2019-05-29T21:14:35.666Z,98079.66
2019-05-29T21:17:09.911Z,98075.88
2019-05-29T21:19:44.664Z,98078.91
2019-05-29T21:22:18.984Z,98078.77
2019-05-29T21:25:03.411Z,98071.81
2019-05-29T21:27:28.836Z,98070.65
2019-05-29T21:30:02.979Z,98070.22
2019-05-29T21:32:37.810Z,98071.23
2019-05-29T21:35:12.178Z,98071.74
2019-05-29T21:37:46.696Z,98071.43
2019-05-29T21:40:21.053Z,98068.67
2019-05-29T21:42:54.890Z,98068.94
2019-05-29T21:45:28.949Z,98066.23
2019-05-29T21:48:03.215Z,98068.16
2019-05-29T21:50:37.243Z,98065.66
2019-05-29T21:53:12.746Z,98064.30
2019-05-29T21:55:47.816Z,98068.63
2019-05-29T21:58:21.856Z,98068.65
2019-05-29T22:00:56.374Z,98070.59
2019-05-29T22:03:31.844Z,98071.72
2019-05-29T22:06:06.162Z,98070.95
2019-05-29T22:08:40.800Z,98075.59
2019-05-29T22:11:14.986Z,98070.47
2019-05-29T22:13:50.229Z,98068.28
2019-05-29T22:16:24.471Z,98074.59
2019-05-29T22:19:02.499Z,98072.13
2019-05-29T22:21:34.623Z,98065.85
2019-05-29T22:24:08.864Z,98065.00
2019-05-29T22:26:46.199Z,98074.30
2019-05-29T22:29:20.178Z,98078.52
2019-05-29T22:31:55.369Z,98077.88
2019-05-29T22:34:29.473Z,98083.55
2019-05-29T22:37:03.661Z,98076.64
2019-05-29T22:39:37.945Z,98082.86
2019-05-29T22:42:11.904Z,98083.03
2019-05-29T22:44:46.941Z,98090.69
2019-05-29T22:47:21.073Z,98082.22
2019-05-29T22:49:55.748Z,98085.45
2019-05-29T22:52:29.789Z,98083.25
2019-05-29T22:55:04.140Z,98078.66
2019-05-29T22:57:38.276Z,98073.98
2019-05-29T23:00:13.442Z,98082.98
2019-05-29T23:02:47.401Z,98077.53
2019-05-29T23:05:21.608Z,98080.02
2019-05-29T23:07:56.132Z,98084.68
2019-05-29T23:10:31.344Z,98085.86
2019-05-29T23:13:06.038Z,98088.59
2019-05-29T23:15:40.495Z,98083.38
2019-05-29T23:18:15.005Z,98086.40
2019-05-29T23:20:48.976Z,98089.94
2019-05-29T23:23:23.375Z,98089.67
2019-05-29T23:25:58.599Z,98087.52
2019-05-29T23:28:32.888Z,98086.16
2019-05-29T23:31:07.047Z,98092.11
2019-05-29T23:33:41.074Z,98098.69
2019-05-29T23:36:16.632Z,98095.72
2019-05-29T23:38:50.565Z,98103.07
2019-05-29T23:41:24.771Z,98105.52
2019-05-29T23:43:59.584Z,98108.53
2019-05-29T23:46:33.854Z,98118.09
2019-05-29T23:49:08.402Z,98115.36
2019-05-29T23:51:42.572Z,98116.43
2019-05-29T23:54:16.834Z,98119.45
2019-05-29T23:56:50.898Z,98126.27
2019-05-29T23:59:25.131Z,98127.88
